createdAt,value
2022-08-11T00:01:56.126Z,20.84
2022-08-11T00:04:25.711Z,20.85
2022-08-11T00:06:55.059Z,20.76
2022-08-11T00:09:31.620Z,20.73
2022-08-11T00:12:14.796Z,20.70
2022-08-11T00:14:43.074Z,20.64
2022-08-11T00:17:13.061Z,20.56
2022-08-11T00:20:15.170Z,20.53
2022-08-11T00:22:32.442Z,20.74
2022-08-11T00:25:08.817Z,20.59
2022-08-11T00:27:37.048Z,20.71
2022-08-11T00:30:09.068Z,20.73
2022-08-11T00:32:38.143Z,20.85
2022-08-11T00:35:54.810Z,20.72
2022-08-11T00:37:56.679Z,20.56
2022-08-11T00:40:50.514Z,20.53
2022-08-11T00:43:34.664Z,20.45
2022-08-11T00:46:10.929Z,20.48
2022-08-11T00:48:43.541Z,20.48
2022-08-11T00:51:25.465Z,20.46
2022-08-11T00:54:16.698Z,20.33
2022-08-11T00:57:05.098Z,20.23
2022-08-11T01:00:17.029Z,20.25
2022-08-11T01:03:14.458Z,20.26
2022-08-11T01:06:21.084Z,20.15
2022-08-11T01:09:22.364Z,19.97
2022-08-11T01:11:56.355Z,19.90
2022-08-11T01:14:54.280Z,19.90
2022-08-11T01:17:26.902Z,19.87
2022-08-11T01:20:48.459Z,19.82
2022-08-11T01:23:33.693Z,19.82
2022-08-11T01:26:37.841Z,19.83
2022-08-11T01:29:31.112Z,19.67
2022-08-11T01:32:12.757Z,19.74
2022-08-11T01:35:13.251Z,19.67
2022-08-11T01:37:54.655Z,19.59
2022-08-11T01:40:38.345Z,19.50
2022-08-11T01:44:00.824Z,19.47
2022-08-11T01:46:50.329Z,19.28
2022-08-11T01:50:08.589Z,19.26
2022-08-11T01:52:33.699Z,19.19
2022-08-11T01:55:01.802Z,19.25
2022-08-11T01:58:08.646Z,19.29
2022-08-11T02:00:53.785Z,19.03
2022-08-11T02:03:44.824Z,19.17
2022-08-11T02:06:29.898Z,19.03
2022-08-11T02:09:10.255Z,19.03
2022-08-11T02:11:38.215Z,18.94
2022-08-11T02:14:39.813Z,18.80
2022-08-11T02:17:09.547Z,18.74
2022-08-11T02:20:13.711Z,18.77
2022-08-11T02:23:10.244Z,18.63
2022-08-11T02:25:53.713Z,18.47
2022-08-11T02:28:28.960Z,18.41
2022-08-11T02:32:24.831Z,18.48
2022-08-11T02:34:59.615Z,18.32
2022-08-11T02:37:32.807Z,18.30
2022-08-11T02:39:59.363Z,18.27
2022-08-11T02:42:44.642Z,18.20
2022-08-11T02:45:48.375Z,18.38
2022-08-11T02:48:55.139Z,18.29
2022-08-11T02:51:59.115Z,18.22
2022-08-11T02:54:37.834Z,18.17
2022-08-11T02:57:11.735Z,18.10
2022-08-11T02:59:50.392Z,18.01
2022-08-11T03:02:31.500Z,18.21
2022-08-11T03:05:12.171Z,18.24
2022-08-11T03:07:57.122Z,18.16
2022-08-11T03:10:41.513Z,18.11
2022-08-11T03:13:41.378Z,18.19
2022-08-11T03:16:35.889Z,18.04
2022-08-11T03:19:21.898Z,18.03
2022-08-11T03:22:02.961Z,18.02
2022-08-11T03:24:36.196Z,18.08
2022-08-11T03:27:11.144Z,18.01
2022-08-11T03:29:44.903Z,17.86
2022-08-11T03:32:33.017Z,17.68
2022-08-11T03:35:02.539Z,17.87
2022-08-11T03:37:54.968Z,17.75
2022-08-11T03:40:54.079Z,17.71
2022-08-11T03:43:26.920Z,17.68
2022-08-11T03:46:13.209Z,17.44
2022-08-11T03:48:53.533Z,17.53
2022-08-11T03:51:44.718Z,17.59
2022-08-11T03:54:22.190Z,17.37
2022-08-11T03:57:16.967Z,17.47
2022-08-11T04:00:10.247Z,17.53
2022-08-11T04:02:53.576Z,17.32
2022-08-11T04:05:54.040Z,17.39
2022-08-11T04:08:45.427Z,17.31
2022-08-11T04:11:32.075Z,17.24
2022-08-11T04:14:52.204Z,17.27
2022-08-11T04:17:34.335Z,17.20
2022-08-11T04:20:06.917Z,17.18
2022-08-11T04:22:45.495Z,17.03
2022-08-11T04:25:31.035Z,17.23
2022-08-11T04:28:09.694Z,17.42
2022-08-11T04:31:51.033Z,17.42
2022-08-11T04:34:18.794Z,17.26
2022-08-11T04:37:34.575Z,17.26
2022-08-11T04:40:04.082Z,17.21
2022-08-11T04:43:14.310Z,17.32
2022-08-11T04:45:50.718Z,17.29
2022-08-11T04:48:35.825Z,17.53
2022-08-11T04:52:09.855Z,17.58
2022-08-11T04:55:29.114Z,17.51
2022-08-11T04:58:20.465Z,17.73
2022-08-11T05:01:18.244Z,17.76
2022-08-11T05:04:33.120Z,17.75
2022-08-11T05:07:14.496Z,18.01
2022-08-11T05:09:48.661Z,18.04
2022-08-11T05:12:21.735Z,18.13
2022-08-11T05:15:10.190Z,18.27
2022-08-11T05:18:21.391Z,18.19
2022-08-11T05:21:10.568Z,18.36
2022-08-11T05:24:00.849Z,18.43
2022-08-11T05:26:49.975Z,18.50
2022-08-11T05:30:04.712Z,18.62
2022-08-11T05:33:02.907Z,18.53
2022-08-11T05:36:01.896Z,18.67
2022-08-11T05:38:52.395Z,18.63
2022-08-11T05:41:43.935Z,18.73
2022-08-11T05:44:30.285Z,18.79
2022-08-11T05:47:16.550Z,19.18
2022-08-11T05:50:08.965Z,19.16
2022-08-11T05:53:04.430Z,19.11
2022-08-11T05:56:02.315Z,19.30
2022-08-11T05:58:42.672Z,19.39
2022-08-11T06:01:13.141Z,19.53
2022-08-11T06:04:03.643Z,19.55
2022-08-11T06:06:31.019Z,19.76
2022-08-11T06:08:59.714Z,19.84
2022-08-11T06:11:44.424Z,19.84
2022-08-11T06:14:13.409Z,19.93
2022-08-11T06:16:42.758Z,20.05
2022-08-11T06:19:10.617Z,20.22
2022-08-11T06:21:37.927Z,20.33
2022-08-11T06:24:11.878Z,20.55
2022-08-11T06:27:01.199Z,20.80
2022-08-11T06:29:37.877Z,20.75
2022-08-11T06:32:15.381Z,20.92
2022-08-11T06:35:19.736Z,21.06
2022-08-11T06:38:16.247Z,21.29
2022-08-11T06:41:18.098Z,21.60
2022-08-11T06:43:55.564Z,21.74
2022-08-11T06:46:32.027Z,21.83
2022-08-11T06:49:02.747Z,22.11
2022-08-11T06:51:32.373Z,22.29
2022-08-11T06:54:04.364Z,22.46
2022-08-11T07:00:02.245Z,22.98
2022-08-11T07:02:35.500Z,23.32
2022-08-11T07:05:28.937Z,23.58
2022-08-11T07:08:46.869Z,24.03
2022-08-11T07:12:07.976Z,24.33
2022-08-11T07:14:58.918Z,23.88
2022-08-11T07:17:29.227Z,25.24
2022-08-11T07:20:18.331Z,24.95
2022-08-11T07:23:10.850Z,25.38
2022-08-11T07:26:00.252Z,25.60
2022-08-11T07:28:48.516Z,26.11
2022-08-11T07:31:24.442Z,25.91
2022-08-11T07:34:08.240Z,26.32
2022-08-11T07:36:42.871Z,26.30
2022-08-11T07:39:21.034Z,26.52
2022-08-11T07:41:49.031Z,26.52
2022-08-11T07:44:17.173Z,26.91
2022-08-11T07:47:05.892Z,27.57
2022-08-11T07:49:55.328Z,27.09
2022-08-11T07:52:33.772Z,25.15
2022-08-11T07:55:08.610Z,26.10
2022-08-11T07:58:15.266Z,26.62
2022-08-11T08:01:09.905Z,26.76
2022-08-11T08:03:57.364Z,27.04
2022-08-11T08:06:43.267Z,27.73
2022-08-11T08:09:29.224Z,28.20
2022-08-11T08:12:15.397Z,27.65
2022-08-11T08:15:01.555Z,27.04
2022-08-11T08:18:09.799Z,28.40
2022-08-11T08:20:44.659Z,28.48
2022-08-11T08:23:11.771Z,28.40
2022-08-11T08:25:42.175Z,28.18
2022-08-11T08:28:32.325Z,27.73
2022-08-11T08:30:59.767Z,29.10
2022-08-11T08:33:29.259Z,27.40
2022-08-11T08:36:15.051Z,28.48
2022-08-11T08:38:43.567Z,28.60
2022-08-11T08:41:13.067Z,28.88
2022-08-11T08:43:48.377Z,28.65
2022-08-11T08:46:19.596Z,28.40
2022-08-11T08:48:47.509Z,29.69
2022-08-11T08:52:01.007Z,29.26
2022-08-11T08:54:25.557Z,28.35
2022-08-11T08:56:55.706Z,28.44
2022-08-11T08:59:26.025Z,27.86
2022-08-11T09:02:00.791Z,29.28
2022-08-11T09:04:29.079Z,28.37
2022-08-11T09:07:00.881Z,30.15
2022-08-11T09:09:30.079Z,29.11
2022-08-11T09:11:57.008Z,30.93
2022-08-11T09:14:25.095Z,28.35
2022-08-11T09:16:53.236Z,30.39
2022-08-11T09:19:21.519Z,29.84
2022-08-11T09:22:09.591Z,29.39
2022-08-11T09:24:55.852Z,30.90
2022-08-11T09:27:23.221Z,29.85
2022-08-11T09:29:51.024Z,28.90
2022-08-11T09:32:22.059Z,27.68
2022-08-11T09:34:52.148Z,28.26
2022-08-11T09:37:55.603Z,28.49
2022-08-11T09:40:30.470Z,30.44
2022-08-11T09:43:23.587Z,28.77
2022-08-11T09:45:53.025Z,28.47
2022-08-11T09:48:22.121Z,29.09
2022-08-11T09:50:52.302Z,30.19
2022-08-11T09:53:36.392Z,29.15
2022-08-11T09:56:36.056Z,29.64
2022-08-11T09:59:04.632Z,30.21
2022-08-11T10:01:41.739Z,31.23
2022-08-11T10:04:41.802Z,30.94
2022-08-11T10:07:10.887Z,30.25
2022-08-11T10:09:49.117Z,31.22
2022-08-11T10:12:24.532Z,30.73
2022-08-11T10:15:15.871Z,32.01
2022-08-11T10:18:06.266Z,30.82
2022-08-11T10:20:35.664Z,31.58
2022-08-11T10:23:21.940Z,32.60
2022-08-11T10:26:07.616Z,29.04
2022-08-11T10:28:50.121Z,30.89
2022-08-11T10:31:57.522Z,31.80
2022-08-11T10:34:29.173Z,32.47
2022-08-11T10:36:57.207Z,33.40
2022-08-11T10:39:24.554Z,33.44
2022-08-11T10:42:17.073Z,31.28
2022-08-11T10:44:54.546Z,30.68
2022-08-11T10:47:44.352Z,30.68
2022-08-11T10:50:34.599Z,30.34
2022-08-11T10:53:21.071Z,31.88
2022-08-11T10:56:06.932Z,30.68
2022-08-11T10:58:49.076Z,31.65
2022-08-11T11:01:31.788Z,30.17
2022-08-11T11:04:01.939Z,31.14
2022-08-11T11:06:59.422Z,30.61
2022-08-11T11:09:32.415Z,31.05
2022-08-11T11:12:25.882Z,33.09
2022-08-11T11:15:17.391Z,31.24
2022-08-11T11:18:01.922Z,31.41
2022-08-11T11:20:47.056Z,31.22
2022-08-11T11:23:32.965Z,29.84
2022-08-11T11:26:27.581Z,30.55
2022-08-11T11:29:06.753Z,31.36
2022-08-11T11:31:48.301Z,31.10
2022-08-11T11:34:14.833Z,32.37
2022-08-11T11:36:58.238Z,31.98
2022-08-11T11:39:31.394Z,31.83
2022-08-11T11:42:05.065Z,32.29
2022-08-11T11:44:32.094Z,31.87
2022-08-11T11:47:01.278Z,31.63
2022-08-11T11:49:29.876Z,29.40
2022-08-11T11:51:58.421Z,31.38
2022-08-11T11:54:28.831Z,31.45
2022-08-11T11:56:57.595Z,32.76
2022-08-11T11:59:46.312Z,31.59
2022-08-11T12:02:15.971Z,32.29
2022-08-11T12:04:45.597Z,32.48
2022-08-11T12:07:31.590Z,34.01
2022-08-11T12:09:59.105Z,34.27
2022-08-11T12:12:44.652Z,32.49
2022-08-11T12:15:12.097Z,33.10
2022-08-11T12:17:39.708Z,32.97
2022-08-11T12:20:31.731Z,31.96
2022-08-11T12:23:14.652Z,33.44
2022-08-11T12:26:25.788Z,34.22
2022-08-11T12:28:49.908Z,33.40
2022-08-11T12:31:16.741Z,32.66
2022-08-11T12:33:44.563Z,32.83
2022-08-11T12:36:15.839Z,33.32
2022-08-11T12:38:45.881Z,33.09
2022-08-11T12:41:39.486Z,33.53
2022-08-11T12:44:29.863Z,34.16
2022-08-11T12:47:02.018Z,32.12
2022-08-11T12:49:51.757Z,34.12
2022-08-11T12:52:25.406Z,35.09
2022-08-11T12:55:02.804Z,32.57
2022-08-11T12:57:55.733Z,32.68
2022-08-11T13:00:43.017Z,34.03
2022-08-11T13:03:29.935Z,35.62
2022-08-11T13:05:59.993Z,34.98
2022-08-11T13:08:29.619Z,34.55
2022-08-11T13:11:18.967Z,33.92
2022-08-11T13:13:53.539Z,32.97
2022-08-11T13:16:28.716Z,34.03
2022-08-11T13:18:57.517Z,34.15
2022-08-11T13:21:26.217Z,33.61
2022-08-11T13:24:00.734Z,33.93
2022-08-11T13:26:47.226Z,34.27
2022-08-11T13:29:22.047Z,32.57
2022-08-11T13:31:49.093Z,31.47
2022-08-11T13:34:17.692Z,31.04
2022-08-11T13:36:45.390Z,30.79
2022-08-11T13:39:13.499Z,32.29
2022-08-11T13:41:42.277Z,33.77
2022-08-11T13:44:12.118Z,32.38
2022-08-11T13:46:40.315Z,32.10
2022-08-11T13:49:11.366Z,32.09
2022-08-11T13:51:40.066Z,32.29
2022-08-11T13:54:10.398Z,33.12
2022-08-11T13:56:39.912Z,35.16
2022-08-11T13:59:08.670Z,34.78
2022-08-11T14:02:19.835Z,32.51
2022-08-11T14:04:39.515Z,32.27
2022-08-11T14:07:08.967Z,31.77
2022-08-11T14:09:39.954Z,32.39
2022-08-11T14:12:41.425Z,32.70
2022-08-11T14:15:20.158Z,33.06
2022-08-11T14:17:57.366Z,33.11
2022-08-11T14:20:39.661Z,31.52
2022-08-11T14:23:11.117Z,32.49
2022-08-11T14:26:02.412Z,33.92
2022-08-11T14:28:38.832Z,33.32
2022-08-11T14:31:12.704Z,33.50
2022-08-11T14:34:00.645Z,33.19
2022-08-11T14:36:31.305Z,33.46
2022-08-11T14:38:58.607Z,32.79
2022-08-11T14:42:10.898Z,32.58
2022-08-11T14:44:53.144Z,32.42
2022-08-11T14:47:24.759Z,32.74
2022-08-11T14:50:04.990Z,32.86
2022-08-11T14:52:44.722Z,33.02
2022-08-11T14:55:31.656Z,32.46
2022-08-11T14:57:58.968Z,32.58
2022-08-11T15:00:26.733Z,32.43
2022-08-11T15:03:10.872Z,32.17
2022-08-11T15:05:57.952Z,31.59
2022-08-11T15:08:56.716Z,31.59
2022-08-11T15:11:47.174Z,32.29
2022-08-11T15:14:14.787Z,32.25
2022-08-11T15:17:02.901Z,32.61
2022-08-11T15:19:40.106Z,31.62
2022-08-11T15:22:28.714Z,31.89
2022-08-11T15:24:57.524Z,31.83
2022-08-11T15:27:44.639Z,31.35
2022-08-11T15:30:33.843Z,31.92
2022-08-11T15:33:28.166Z,31.85
2022-08-11T15:36:15.241Z,31.99
2022-08-11T15:38:55.224Z,31.87
2022-08-11T15:41:54.495Z,31.73
2022-08-11T15:45:02.274Z,32.17
2022-08-11T15:47:41.641Z,31.75
2022-08-11T15:50:15.268Z,32.67
2022-08-11T15:52:58.597Z,32.12
2022-08-11T15:55:26.533Z,31.83
2022-08-11T15:58:13.587Z,31.54
2022-08-11T16:01:04.436Z,32.24
2022-08-11T16:04:07.769Z,31.82
2022-08-11T16:06:47.757Z,31.38
2022-08-11T16:09:20.970Z,31.77
2022-08-11T16:11:59.011Z,32.37
2022-08-11T16:14:58.036Z,30.99
2022-08-11T16:17:27.023Z,31.40
2022-08-11T16:19:58.751Z,31.15
2022-08-11T16:22:40.189Z,31.05
2022-08-11T16:27:03.506Z,31.03
2022-08-11T16:28:06.271Z,31.60
2022-08-11T16:30:39.039Z,31.04
2022-08-11T16:33:48.622Z,30.66
2022-08-11T16:36:13.939Z,30.75
2022-08-11T16:38:41.726Z,30.65
2022-08-11T16:41:38.446Z,30.17
2022-08-11T16:44:37.329Z,30.46
2022-08-11T16:47:13.497Z,30.26
2022-08-11T16:49:52.746Z,30.30
2022-08-11T16:52:21.285Z,30.11
2022-08-11T16:54:48.900Z,30.06
2022-08-11T16:57:37.448Z,30.02
2022-08-11T17:00:12.476Z,29.93
2022-08-11T17:03:10.762Z,29.86
2022-08-11T17:06:03.037Z,29.82
2022-08-11T17:08:57.407Z,29.74
2022-08-11T17:11:47.888Z,29.55
2022-08-11T17:14:58.675Z,29.27
2022-08-11T17:17:33.733Z,29.21
2022-08-11T17:20:41.419Z,29.12
2022-08-11T17:23:18.814Z,29.04
2022-08-11T17:25:58.718Z,28.95
2022-08-11T17:28:33.074Z,28.82
2022-08-11T17:31:22.713Z,28.86
2022-08-11T17:34:10.581Z,28.77
2022-08-11T17:36:41.523Z,28.63
2022-08-11T17:39:13.309Z,28.58
2022-08-11T17:41:59.066Z,28.63
2022-08-11T17:44:45.779Z,28.48
2022-08-11T17:47:32.782Z,28.40
2022-08-11T17:50:15.410Z,28.33
2022-08-11T17:53:05.179Z,28.22
2022-08-11T17:55:54.025Z,28.09
2022-08-11T17:58:42.890Z,27.96
2022-08-11T18:01:12.199Z,27.97
2022-08-11T18:03:56.424Z,27.79
2022-08-11T18:06:33.991Z,27.75
2022-08-11T18:12:48.725Z,27.38
2022-08-11T18:15:33.894Z,27.29
2022-08-11T18:18:19.361Z,27.16
2022-08-11T18:21:05.265Z,26.94
2022-08-11T18:23:50.628Z,26.82
2022-08-11T18:26:39.604Z,26.84
2022-08-11T18:29:26.961Z,26.78
2022-08-11T18:32:21.312Z,26.75
2022-08-11T18:35:13.776Z,26.71
2022-08-11T18:38:04.609Z,26.72
2022-08-11T18:40:51.371Z,26.53
2022-08-11T18:43:40.759Z,26.36
2022-08-11T18:46:28.737Z,26.34
2022-08-11T18:49:26.614Z,26.33
2022-08-11T18:52:22.216Z,26.07
2022-08-11T18:55:10.390Z,26.02
2022-08-11T18:58:01.848Z,25.94
2022-08-11T19:00:48.321Z,25.90
2022-08-11T19:03:48.688Z,25.90
2022-08-11T19:06:39.771Z,25.62
2022-08-11T19:09:29.405Z,25.63
2022-08-11T19:12:16.806Z,25.44
2022-08-11T19:15:04.874Z,25.41
2022-08-11T19:17:52.661Z,25.40
2022-08-11T19:20:42.933Z,25.33
2022-08-11T19:23:30.746Z,25.21
2022-08-11T19:26:17.722Z,24.98
2022-08-11T19:29:06.553Z,25.07
2022-08-11T19:31:52.905Z,24.89
2022-08-11T19:34:40.661Z,24.87
2022-08-11T19:37:27.593Z,24.89
2022-08-11T19:40:16.920Z,24.69
2022-08-11T19:43:03.605Z,24.69
2022-08-11T19:45:52.323Z,24.49
2022-08-11T19:48:40.382Z,24.48
2022-08-11T19:51:28.801Z,24.38
2022-08-11T19:54:15.136Z,24.23
2022-08-11T19:57:02.429Z,24.14
2022-08-11T19:59:49.379Z,24.13
2022-08-11T20:02:35.230Z,24.02
2022-08-11T20:05:21.103Z,23.98
2022-08-11T20:08:06.797Z,23.90
2022-08-11T20:10:54.681Z,23.83
2022-08-11T20:13:42.669Z,23.78
2022-08-11T20:16:32.223Z,23.77
2022-08-11T20:19:20.038Z,23.66
2022-08-11T20:22:14.970Z,23.57
2022-08-11T20:25:01.932Z,23.61
2022-08-11T20:27:47.248Z,23.55
2022-08-11T20:30:33.109Z,23.36
2022-08-11T20:33:19.487Z,23.20
2022-08-11T20:36:07.930Z,23.24
2022-08-11T20:38:55.945Z,23.13
2022-08-11T20:41:58.181Z,23.06
2022-08-11T20:44:46.199Z,23.00
2022-08-11T20:47:56.282Z,22.87
2022-08-11T20:50:41.274Z,22.89
2022-08-11T20:53:28.489Z,22.87
2022-08-11T20:56:16.267Z,22.93
2022-08-11T20:59:21.884Z,22.93
2022-08-11T21:02:10.662Z,22.90
2022-08-11T21:05:00.281Z,22.86
2022-08-11T21:07:57.130Z,22.86
2022-08-11T21:10:51.629Z,22.78
2022-08-11T21:13:38.731Z,22.88
2022-08-11T21:16:27.472Z,22.90
2022-08-11T21:19:56.381Z,22.82
2022-08-11T21:22:43.336Z,22.72
2022-08-11T21:25:47.871Z,22.47
2022-08-11T21:28:37.265Z,22.52
2022-08-11T21:31:24.489Z,22.41
2022-08-11T21:34:10.201Z,22.38
2022-08-11T21:36:55.356Z,22.38
2022-08-11T21:39:42.127Z,22.37
2022-08-11T21:42:29.692Z,22.36
2022-08-11T21:45:17.109Z,22.32
2022-08-11T21:48:03.322Z,22.23
2022-08-11T21:50:48.500Z,22.19
2022-08-11T21:53:34.785Z,22.08
2022-08-11T21:56:22.057Z,22.10
2022-08-11T21:59:13.076Z,22.05
2022-08-11T22:01:58.486Z,22.10
2022-08-11T22:04:44.239Z,22.07
2022-08-11T22:07:30.646Z,22.09
2022-08-11T22:10:36.940Z,22.10
2022-08-11T22:13:24.831Z,22.10
2022-08-11T22:16:09.986Z,21.99
2022-08-11T22:18:55.904Z,21.94
2022-08-11T22:22:02.691Z,21.88
2022-08-11T22:24:49.156Z,21.92
2022-08-11T22:27:34.594Z,21.82
2022-08-11T22:30:19.984Z,21.61
2022-08-11T22:33:05.764Z,21.73
2022-08-11T22:35:51.053Z,21.75
2022-08-11T22:38:37.295Z,21.59
2022-08-11T22:41:22.565Z,21.65
2022-08-11T22:44:07.888Z,21.76
2022-08-11T22:46:54.664Z,21.61
2022-08-11T22:49:57.039Z,21.47
2022-08-11T22:52:44.507Z,21.50
2022-08-11T22:55:29.722Z,21.44
2022-08-11T22:58:15.016Z,21.42
2022-08-11T23:01:00.877Z,21.50
2022-08-11T23:03:47.274Z,21.37
2022-08-11T23:06:33.194Z,21.26
2022-08-11T23:09:20.381Z,21.25
2022-08-11T23:12:10.289Z,21.23
2022-08-11T23:14:57.826Z,21.02
2022-08-11T23:17:44.761Z,20.97
2022-08-11T23:20:52.546Z,20.96
2022-08-11T23:23:37.124Z,20.72
2022-08-11T23:26:22.961Z,20.60
2022-08-11T23:29:08.198Z,20.76
2022-08-11T23:31:56.053Z,20.80
2022-08-11T23:35:04.252Z,21.05
2022-08-11T23:37:54.062Z,20.95
2022-08-11T23:40:39.407Z,21.02
2022-08-11T23:43:25.675Z,21.02
2022-08-11T23:46:10.938Z,20.98
2022-08-11T23:48:57.753Z,20.97
2022-08-11T23:51:45.239Z,20.90
2022-08-11T23:54:36.594Z,20.91
2022-08-11T23:57:23.597Z,20.91
